Time;durP1;ratioP1;P1;durP2;ratioP2;P2;SDS_P1;SDS_P2;PMS_P1;PMS_P2;Temp;Humidity;BMP_temperature;BMP_pressure;BME280_temperature;BME280_humidity;BME280_pressure;Samples;Min_cycle;Max_cycle;Signal;HPM_P1;HPM_P2
2023/12/01 00:02:24;;;;;;;8.48;4.30;;;1.20;99.90;;;;;;5023446;28;20022;-73
2023/12/01 00:04:51;;;;;;;12.98;6.78;;;1.20;99.90;;;;;;5028166;28;20036;-72
2023/12/01 00:07:17;;;;;;;9.32;4.47;;;1.20;99.90;;;;;;5034567;28;20017;-72
2023/12/01 00:09:43;;;;;;;10.00;4.97;;;1.20;99.90;;;;;;5030615;28;20064;-73
2023/12/01 00:12:08;;;;;;;10.73;3.78;;;1.10;99.90;;;;;;5032538;28;20177;-72
2023/12/01 00:14:34;;;;;;;5.43;3.15;;;1.10;99.90;;;;;;5040852;28;20069;-72
2023/12/01 00:17:00;;;;;;;5.97;3.92;;;1.10;99.90;;;;;;5036353;28;20079;-72
2023/12/01 00:19:26;;;;;;;3.30;2.42;;;1.20;99.90;;;;;;5021556;28;20426;-73
2023/12/01 00:21:52;;;;;;;5.65;3.42;;;1.20;99.90;;;;;;5020955;28;20018;-73
2023/12/01 00:24:18;;;;;;;2.72;2.53;;;1.20;99.90;;;;;;5011332;28;20033;-73
2023/12/01 00:26:45;;;;;;;9.50;4.35;;;1.20;99.90;;;;;;5031231;28;20080;-73
2023/12/01 00:29:11;;;;;;;7.30;3.45;;;1.30;99.90;;;;;;5032005;28;20060;-73
2023/12/01 00:31:37;;;;;;;3.78;2.83;;;1.20;99.90;;;;;;5023486;28;20091;-73
2023/12/01 00:34:04;;;;;;;2.78;2.58;;;1.20;99.90;;;;;;5017309;28;20021;-73
2023/12/01 00:36:31;;;;;;;8.68;3.97;;;1.20;99.90;;;;;;5029038;28;20493;-73
2023/12/01 00:38:57;;;;;;;10.77;4.25;;;1.20;99.90;;;;;;5043953;28;20354;-74
2023/12/01 00:41:22;;;;;;;2.20;2.08;;;1.20;99.90;;;;;;5046959;28;20113;-74
2023/12/01 00:43:49;;;;;;;5.40;3.08;;;1.20;99.90;;;;;;5022116;28;20116;-74
2023/12/01 00:46:14;;;;;;;5.22;3.45;;;1.30;99.90;;;;;;5044286;28;20029;-74
2023/12/01 00:48:40;;;;;;;6.20;3.88;;;1.20;99.90;;;;;;5046608;28;20108;-74
2023/12/01 00:51:18;;;;;;;3.22;3.03;;;1.20;99.90;;;;;;5031932;28;20556;-73
2023/12/01 00:53:44;;;;;;;3.60;2.63;;;1.30;99.90;;;;;;5018689;28;20026;-73
2023/12/01 00:56:11;;;;;;;4.63;3.10;;;1.30;99.90;;;;;;5010797;28;20397;-73
2023/12/01 00:58:38;;;;;;;11.38;3.80;;;1.20;99.90;;;;;;5026651;28;20030;-73
2023/12/01 01:01:05;;;;;;;4.25;3.33;;;1.30;99.90;;;;;;5038573;28;20136;-74
2023/12/01 01:03:31;;;;;;;3.65;3.35;;;1.30;99.90;;;;;;5036982;28;20038;-74
2023/12/01 01:05:57;;;;;;;4.95;3.20;;;1.30;99.90;;;;;;5023175;28;20037;-74
2023/12/01 01:08:23;;;;;;;2.83;2.63;;;1.20;99.90;;;;;;5009750;28;20044;-74
2023/12/01 01:10:49;;;;;;;9.40;5.22;;;1.20;99.90;;;;;;5031539;28;20497;-74
2023/12/01 01:13:14;;;;;;;8.98;3.20;;;1.20;99.90;;;;;;5037783;28;20033;-73
2023/12/01 01:15:40;;;;;;;8.05;3.15;;;1.30;99.90;;;;;;5025286;28;20017;-72
2023/12/01 01:18:06;;;;;;;7.65;4.80;;;1.20;99.90;;;;;;5036091;28;20048;-72
2023/12/01 01:20:32;;;;;;;4.13;2.55;;;1.20;99.90;;;;;;5049063;28;20025;-72
2023/12/01 01:22:58;;;;;;;8.25;3.47;;;1.20;99.90;;;;;;5037380;28;20083;-72
2023/12/01 01:25:24;;;;;;;12.85;3.10;;;1.20;99.90;;;;;;5030485;28;20030;-71
2023/12/01 01:27:49;;;;;;;6.70;3.28;;;1.20;99.90;;;;;;5022536;28;20030;-72
2023/12/01 01:30:16;;;;;;;5.75;3.22;;;1.20;99.90;;;;;;5019674;28;20057;-72
2023/12/01 01:32:41;;;;;;;3.58;3.20;;;1.20;99.90;;;;;;5045835;28;20022;-72
2023/12/01 01:35:08;;;;;;;3.78;3.03;;;1.20;99.90;;;;;;5005789;28;20037;-72
2023/12/01 01:37:34;;;;;;;2.55;2.35;;;1.20;99.90;;;;;;5028909;28;20120;-72
2023/12/01 01:39:59;;;;;;;7.25;3.45;;;1.20;99.90;;;;;;5038003;28;20050;-72
2023/12/01 01:42:25;;;;;;;6.13;2.42;;;1.20;99.90;;;;;;5047343;28;20037;-72
2023/12/01 01:44:51;;;;;;;4.38;3.03;;;1.20;99.90;;;;;;5028841;28;20085;-72
2023/12/01 01:47:17;;;;;;;4.40;2.22;;;1.10;99.90;;;;;;5029955;28;20033;-72
2023/12/01 01:49:43;;;;;;;14.68;3.42;;;1.10;99.90;;;;;;5021779;28;20415;-72
2023/12/01 01:52:11;;;;;;;1.73;1.63;;;1.20;99.90;;;;;;5023152;28;20172;-72
2023/12/01 01:54:38;;;;;;;5.22;2.63;;;1.20;99.90;;;;;;5030081;28;20049;-72
2023/12/01 01:57:05;;;;;;;4.68;2.60;;;1.20;99.90;;;;;;5034469;28;20031;-72
2023/12/01 01:59:31;;;;;;;4.63;3.45;;;1.20;99.90;;;;;;5048275;28;20026;-72
2023/12/01 02:01:57;;;;;;;2.67;2.05;;;1.20;99.90;;;;;;5026188;28;20135;-72
2023/12/01 02:04:23;;;;;;;4.00;2.38;;;1.20;99.90;;;;;;5048964;28;21851;-74
2023/12/01 02:06:49;;;;;;;16.95;2.95;;;1.30;99.90;;;;;;5034977;28;20029;-72
2023/12/01 02:09:15;;;;;;;5.00;3.47;;;1.20;99.90;;;;;;5038474;28;20030;-72
2023/12/01 02:11:41;;;;;;;6.93;3.20;;;1.20;99.90;;;;;;5018968;28;20033;-72
2023/12/01 02:14:07;;;;;;;5.40;3.10;;;1.30;99.90;;;;;;5046299;28;20091;-71
2023/12/01 02:16:34;;;;;;;5.82;3.05;;;1.30;99.90;;;;;;5048161;28;20560;-72
2023/12/01 02:18:59;;;;;;;3.20;1.98;;;1.30;99.90;;;;;;5045893;28;20026;-72
2023/12/01 02:21:26;;;;;;;5.22;3.10;;;1.30;99.90;;;;;;5040533;28;20424;-72
2023/12/01 02:23:55;;;;;;;4.85;3.85;;;1.30;99.90;;;;;;5035819;28;20028;-72
2023/12/01 02:26:25;;;;;;;5.82;3.58;;;1.30;99.90;;;;;;5032487;28;20025;-72
2023/12/01 02:28:50;;;;;;;2.70;2.50;;;1.30;99.90;;;;;;5020780;28;20099;-73
2023/12/01 02:31:16;;;;;;;4.13;2.13;;;1.30;99.90;;;;;;5033006;28;20038;-72
2023/12/01 02:33:42;;;;;;;4.93;3.38;;;1.30;99.90;;;;;;5033170;28;20045;-72
2023/12/01 02:36:11;;;;;;;4.55;2.88;;;1.30;99.90;;;;;;5025633;28;20033;-72
2023/12/01 02:38:37;;;;;;;2.25;2.05;;;1.40;99.90;;;;;;5027297;28;20062;-72
2023/12/01 02:41:03;;;;;;;6.75;3.75;;;1.40;99.90;;;;;;5049407;28;20644;-72
2023/12/01 02:43:29;;;;;;;2.72;2.53;;;1.30;99.90;;;;;;5032269;28;20110;-73
2023/12/01 02:45:55;;;;;;;11.95;4.68;;;1.30;99.90;;;;;;5037743;28;20585;-73
2023/12/01 02:48:22;;;;;;;8.70;4.88;;;1.40;99.90;;;;;;5035843;28;20578;-72
2023/12/01 02:50:47;;;;;;;3.95;2.65;;;1.40;99.90;;;;;;5041064;28;20140;-73
2023/12/01 02:53:15;;;;;;;3.65;3.35;;;1.40;99.90;;;;;;5033102;28;20033;-73
2023/12/01 02:55:42;;;;;;;4.00;2.72;;;1.40;99.90;;;;;;5044266;28;20029;-73
2023/12/01 02:58:08;;;;;;;8.20;3.65;;;1.40;99.90;;;;;;5025996;28;20048;-72
2023/12/01 03:00:35;;;;;;;2.22;2.03;;;1.40;99.90;;;;;;5032511;28;20037;-72
2023/12/01 03:03:00;;;;;;;4.78;4.35;;;1.40;99.90;;;;;;5041246;28;20030;-72
2023/12/01 03:05:26;;;;;;;3.90;2.25;;;1.40;99.90;;;;;;5066635;28;20025;-73
2023/12/01 03:07:52;;;;;;;7.38;4.07;;;1.40;99.90;;;;;;5015141;28;20021;-73
2023/12/01 03:10:18;;;;;;;4.78;3.03;;;1.40;99.90;;;;;;5039928;28;20037;-73
2023/12/01 03:12:44;;;;;;;3.70;2.90;;;1.50;99.90;;;;;;5033399;28;20040;-72
2023/12/01 03:15:19;;;;;;;17.63;5.68;;;1.40;99.90;;;;;;5041382;28;20068;-72
2023/12/01 03:17:47;;;;;;;2.03;1.92;;;1.50;99.90;;;;;;5038213;28;20560;-72
2023/12/01 03:20:14;;;;;;;5.55;3.50;;;1.40;99.90;;;;;;5047190;28;20049;-72
2023/12/01 03:22:43;;;;;;;14.75;5.10;;;1.40;99.90;;;;;;5034629;28;20029;-72
2023/12/01 03:25:10;;;;;;;4.80;4.20;;;1.50;99.90;;;;;;5040716;28;20021;-72
2023/12/01 03:27:47;;;;;;;2.38;2.13;;;1.30;99.90;;;;;;5026001;28;20191;-72
2023/12/01 03:30:19;;;;;;;5.40;2.22;;;1.40;99.90;;;;;;5023889;28;20067;-72
2023/12/01 03:32:50;;;;;;;6.15;4.10;;;1.40;99.90;;;;;;5047424;28;20036;-73
2023/12/01 03:35:20;;;;;;;;;;;1.40;99.90;;;;;;5033198;28;20026;-72
2023/12/01 03:37:47;;;;;;;2.35;2.15;;;1.40;99.90;;;;;;5013339;28;19959;-72
2023/12/01 03:40:14;;;;;;;3.28;3.00;;;1.50;99.90;;;;;;5044737;28;20414;-72
2023/12/01 03:42:45;;;;;;;2.17;2.08;;;1.50;99.90;;;;;;5020796;28;20033;-73
2023/12/01 03:45:12;;;;;;;5.53;4.97;;;1.50;99.90;;;;;;5043552;28;20037;-72
2023/12/01 03:47:39;;;;;;;7.18;3.58;;;1.40;99.90;;;;;;5022359;28;20367;-73
2023/12/01 03:50:06;;;;;;;4.20;3.08;;;1.50;99.90;;;;;;5031365;28;20072;-72
2023/12/01 03:52:32;;;;;;;6.40;4.82;;;1.40;99.90;;;;;;5030933;28;20120;-73
2023/12/01 03:54:59;;;;;;;5.45;4.00;;;1.40;99.90;;;;;;5039694;28;20113;-72
2023/12/01 03:57:27;;;;;;;8.40;4.47;;;1.50;99.90;;;;;;5022159;28;20029;-72
2023/12/01 03:59:54;;;;;;;6.35;4.38;;;1.50;99.90;;;;;;5044611;28;20366;-73
2023/12/01 04:02:21;;;;;;;6.75;4.53;;;1.50;99.90;;;;;;5023283;28;20029;-73
2023/12/01 04:04:51;;;;;;;6.25;2.50;;;1.50;99.90;;;;;;5036344;28;20026;-73
2023/12/01 04:07:16;;;;;;;8.85;3.85;;;1.60;99.90;;;;;;5028590;28;20115;-73
2023/12/01 04:09:42;;;;;;;10.25;5.88;;;1.60;99.90;;;;;;5013882;28;20088;-73
2023/12/01 04:12:08;;;;;;;2.70;2.22;;;1.60;99.90;;;;;;5038482;28;20033;-72
2023/12/01 04:14:34;;;;;;;10.25;3.03;;;1.60;99.90;;;;;;5034550;28;20500;-73
2023/12/01 04:17:08;;;;;;;12.65;3.78;;;1.60;99.90;;;;;;5037158;28;20168;-73
2023/12/01 04:19:36;;;;;;;7.47;3.88;;;1.60;99.90;;;;;;5040312;28;20036;-74
2023/12/01 04:22:06;;;;;;;4.57;2.88;;;1.60;99.90;;;;;;5040421;28;20414;-75
2023/12/01 04:24:35;;;;;;;5.50;4.63;;;1.60;99.90;;;;;;5057459;28;20072;-72
2023/12/01 04:27:02;;;;;;;8.23;4.40;;;1.60;99.90;;;;;;5046150;28;20029;-73
2023/12/01 04:29:29;;;;;;;9.70;5.28;;;1.60;99.90;;;;;;5047964;28;20021;-73
2023/12/01 04:31:56;;;;;;;3.97;3.47;;;1.50;99.90;;;;;;5041941;28;20051;-73
2023/12/01 04:34:22;;;;;;;4.47;2.60;;;1.50;99.90;;;;;;5030942;28;20029;-72
2023/12/01 04:36:50;;;;;;;12.63;6.13;;;1.50;99.90;;;;;;5029798;28;20033;-73
2023/12/01 04:39:16;;;;;;;4.38;3.65;;;1.60;99.90;;;;;;5030283;28;20508;-74
2023/12/01 04:41:41;;;;;;;7.97;4.70;;;1.60;99.90;;;;;;5026643;28;20114;-73
2023/12/01 04:44:07;;;;;;;5.18;4.32;;;1.60;99.90;;;;;;5014701;28;20091;-73
2023/12/01 04:46:33;;;;;;;4.90;4.20;;;1.60;99.90;;;;;;5035970;28;20116;-73
2023/12/01 04:48:58;;;;;;;3.85;3.17;;;1.50;99.90;;;;;;5043031;28;20047;-73
2023/12/01 04:51:24;;;;;;;4.75;2.65;;;1.50;99.90;;;;;;5042315;28;20028;-73
2023/12/01 04:53:50;;;;;;;6.07;3.45;;;1.60;99.90;;;;;;5039053;28;20037;-72
2023/12/01 04:56:16;;;;;;;6.63;5.53;;;1.50;99.90;;;;;;5011722;28;20104;-74
2023/12/01 04:58:42;;;;;;;3.42;3.10;;;1.50;99.90;;;;;;5032105;28;20095;-73
2023/12/01 05:01:08;;;;;;;10.77;4.90;;;1.60;99.90;;;;;;5032521;28;20033;-73
2023/12/01 05:03:35;;;;;;;8.35;3.95;;;1.60;99.90;;;;;;5048925;28;20087;-73
2023/12/01 05:06:01;;;;;;;18.00;2.85;;;1.70;99.90;;;;;;5055402;28;20078;-74
2023/12/01 05:08:27;;;;;;;4.78;3.10;;;1.70;99.90;;;;;;5038926;28;20029;-73
2023/12/01 05:10:56;;;;;;;6.35;5.28;;;1.70;99.90;;;;;;5032777;28;20024;-74
2023/12/01 05:13:21;;;;;;;5.22;2.92;;;1.70;99.90;;;;;;5031707;28;20029;-72
2023/12/01 05:15:47;;;;;;;21.80;8.20;;;1.70;99.90;;;;;;5036414;28;20082;-73
2023/12/01 05:18:13;;;;;;;14.82;6.00;;;1.70;99.90;;;;;;5031366;28;20113;-73
2023/12/01 05:20:40;;;;;;;7.65;4.38;;;1.80;99.90;;;;;;5047561;28;20030;-73
2023/12/01 05:23:10;;;;;;;18.02;6.28;;;1.70;99.90;;;;;;5032264;28;20400;-73
2023/12/01 05:25:39;;;;;;;5.83;5.27;;;1.70;99.90;;;;;;5052584;28;20405;-73
2023/12/01 05:28:07;;;;;;;6.40;5.82;;;1.70;99.90;;;;;;5045164;28;20803;-73
2023/12/01 05:30:38;;;;;;;6.53;4.53;;;1.70;99.90;;;;;;5027917;28;20477;-73
2023/12/01 05:33:10;;;;;;;5.10;4.70;;;1.70;99.90;;;;;;5027992;28;20030;-72
2023/12/01 05:35:37;;;;;;;13.73;5.70;;;1.70;99.90;;;;;;5045879;28;20095;-72
2023/12/01 05:38:04;;;;;;;5.65;3.85;;;1.80;99.90;;;;;;5040593;28;20025;-72
2023/12/01 05:40:34;;;;;;;5.15;3.92;;;1.80;99.90;;;;;;5032420;28;20450;-72
2023/12/01 05:43:00;;;;;;;7.28;4.85;;;1.80;99.90;;;;;;5033989;28;20128;-72
2023/12/01 05:45:32;;;;;;;5.65;2.92;;;1.80;99.90;;;;;;5024843;28;20393;-72
2023/12/01 05:47:58;;;;;;;10.90;3.50;;;1.70;99.90;;;;;;5042185;28;20040;-72
2023/12/01 05:50:28;;;;;;;14.88;3.53;;;1.70;99.90;;;;;;5023134;28;20074;-72
2023/12/01 05:52:57;;;;;;;9.98;4.05;;;1.80;99.90;;;;;;5028295;28;20124;-72
2023/12/01 05:55:26;;;;;;;10.98;5.75;;;1.80;99.90;;;;;;5032223;28;20030;-71
2023/12/01 05:57:54;;;;;;;6.70;4.93;;;1.80;99.90;;;;;;5038174;28;20187;-71
2023/12/01 06:00:24;;;;;;;5.65;5.15;;;1.80;99.90;;;;;;5031817;28;20026;-71
2023/12/01 06:02:51;;;;;;;3.97;3.67;;;1.80;99.90;;;;;;5039277;28;20026;-72
2023/12/01 06:05:20;;;;;;;6.32;4.50;;;1.90;99.90;;;;;;5047986;28;20076;-72
2023/12/01 06:08:00;;;;;;;7.88;4.93;;;1.80;99.90;;;;;;5030366;28;20057;-72
2023/12/01 06:10:29;;;;;;;11.73;6.05;;;1.90;99.90;;;;;;5027025;28;20040;-72
2023/12/01 06:12:56;;;;;;;9.18;5.45;;;1.90;99.90;;;;;;5015209;28;20025;-71
2023/12/01 06:15:24;;;;;;;5.63;5.13;;;1.90;99.90;;;;;;5032693;28;20030;-71
2023/12/01 06:17:51;;;;;;;6.20;5.00;;;1.90;99.90;;;;;;5020568;28;20029;-70
2023/12/01 06:20:22;;;;;;;5.25;4.10;;;1.90;99.90;;;;;;5034361;28;20033;-71
2023/12/01 06:22:49;;;;;;;;;;;1.90;99.90;;;;;;5026982;28;20033;-71
2023/12/01 06:25:19;;;;;;;9.50;7.25;;;1.90;99.90;;;;;;5045226;28;19913;-71
2023/12/01 06:27:45;;;;;;;7.82;5.38;;;1.90;99.90;;;;;;5017418;28;20026;-71
2023/12/01 06:30:14;;;;;;;6.53;4.55;;;1.90;99.90;;;;;;5031757;28;20038;-71
2023/12/01 06:32:46;;;;;;;9.85;6.75;;;1.80;99.90;;;;;;5042175;28;20026;-71
2023/12/01 06:35:14;;;;;;;5.68;3.78;;;1.80;99.90;;;;;;5033587;28;20040;-71
2023/12/01 06:37:41;;;;;;;7.07;4.22;;;1.90;99.90;;;;;;5016105;28;20469;-72
2023/12/01 06:40:15;;;;;;;15.65;5.28;;;1.90;99.90;;;;;;5032645;28;20030;-72
2023/12/01 06:42:54;;;;;;;4.25;3.88;;;1.90;99.90;;;;;;5032451;28;20037;-72
2023/12/01 06:45:23;;;;;;;12.63;6.22;;;1.80;99.90;;;;;;5007998;28;20061;-71
2023/12/01 06:47:50;;;;;;;7.55;5.47;;;1.90;99.90;;;;;;5028455;28;20479;-70
2023/12/01 06:50:18;;;;;;;8.95;5.22;;;1.90;99.90;;;;;;5030138;28;20033;-71
2023/12/01 06:52:47;;;;;;;18.27;3.28;;;1.80;99.90;;;;;;5047932;28;20021;-71
2023/12/01 06:55:13;;;;;;;9.85;4.28;;;1.90;99.90;;;;;;5021409;28;20033;-71
2023/12/01 06:57:45;;;;;;;4.60;3.70;;;1.90;99.90;;;;;;5043594;28;20026;-72
2023/12/01 07:00:29;;;;;;;5.32;3.10;;;1.90;99.90;;;;;;5033162;28;20135;-71
2023/12/01 07:03:09;;;;;;;11.05;4.88;;;1.90;99.90;;;;;;5020088;28;20033;-71
2023/12/01 07:05:37;;;;;;;12.18;6.80;;;1.90;99.90;;;;;;5023589;28;20030;-71
2023/12/01 07:08:06;;;;;;;21.13;6.40;;;1.80;99.90;;;;;;5031724;28;20055;-71
2023/12/01 07:10:32;;;;;;;11.00;3.63;;;1.80;99.90;;;;;;5027365;28;20496;-71
2023/12/01 07:12:59;;;;;;;10.93;2.55;;;1.90;99.90;;;;;;5040374;28;20068;-70
2023/12/01 07:15:25;;;;;;;4.40;3.35;;;1.80;99.90;;;;;;5038106;28;20025;-71
2023/12/01 07:17:57;;;;;;;4.10;3.13;;;1.80;99.90;;;;;;5032371;28;20107;-74
2023/12/01 07:20:23;;;;;;;3.33;2.95;;;1.80;99.90;;;;;;5025273;28;20030;-73
2023/12/01 07:22:51;;;;;;;8.27;5.97;;;1.80;99.90;;;;;;5020406;28;20675;-73
2023/12/01 07:25:22;;;;;;;4.43;3.38;;;1.90;99.90;;;;;;5036779;28;20038;-73
2023/12/01 07:27:53;;;;;;;4.30;4.00;;;2.00;99.90;;;;;;5025032;28;20021;-70
2023/12/01 07:30:19;;;;;;;10.90;4.53;;;2.20;99.90;;;;;;5026567;28;20082;-71
2023/12/01 07:32:46;;;;;;;10.65;3.70;;;2.10;99.90;;;;;;5031563;28;20033;-71
2023/12/01 07:35:13;;;;;;;7.70;4.13;;;2.10;99.90;;;;;;5031465;28;20021;-71
2023/12/01 07:37:42;;;;;;;6.05;4.00;;;2.10;99.90;;;;;;5031542;28;20113;-72
2023/12/01 07:40:13;;;;;;;3.47;2.55;;;2.00;99.90;;;;;;5031327;28;20568;-71
2023/12/01 07:42:40;;;;;;;7.35;4.15;;;2.00;99.90;;;;;;5024545;28;20038;-71
2023/12/01 07:45:07;;;;;;;9.15;3.72;;;2.00;99.90;;;;;;5002170;28;20030;-71
2023/12/01 07:47:33;;;;;;;6.88;3.60;;;2.00;99.90;;;;;;5042610;28;20044;-73
2023/12/01 07:49:59;;;;;;;10.35;4.65;;;2.00;99.90;;;;;;5030061;28;20052;-72
2023/12/01 07:52:28;;;;;;;5.13;2.28;;;2.00;99.90;;;;;;5012406;28;20025;-72
2023/12/01 07:54:54;;;;;;;9.85;3.97;;;2.00;99.90;;;;;;5022073;28;20068;-72
2023/12/01 07:57:20;;;;;;;3.40;2.05;;;2.00;99.90;;;;;;5028499;28;20056;-71
2023/12/01 07:59:46;;;;;;;6.95;4.60;;;2.00;99.90;;;;;;5029538;28;20033;-71
2023/12/01 08:02:12;;;;;;;9.57;5.95;;;2.00;99.90;;;;;;5032750;28;20025;-72
2023/12/01 08:04:37;;;;;;;4.32;3.92;;;2.00;99.90;;;;;;5037228;28;20021;-72
2023/12/01 08:07:03;;;;;;;10.68;3.60;;;2.00;99.90;;;;;;5038971;28;20026;-72
2023/12/01 08:09:31;;;;;;;8.52;5.13;;;2.00;99.90;;;;;;5018337;28;20132;-73
2023/12/01 08:11:58;;;;;;;4.38;3.53;;;2.00;99.90;;;;;;5020702;28;20478;-72
2023/12/01 08:14:27;;;;;;;2.85;2.28;;;2.00;99.90;;;;;;5017727;28;20124;-72
2023/12/01 08:16:53;;;;;;;5.80;3.85;;;2.00;99.90;;;;;;5041145;28;20040;-72
2023/12/01 08:19:19;;;;;;;3.95;2.90;;;2.00;99.90;;;;;;5044659;28;20034;-72
2023/12/01 08:21:45;;;;;;;5.95;2.83;;;2.00;99.90;;;;;;5043836;28;20030;-72
2023/12/01 08:24:11;;;;;;;4.18;2.80;;;2.00;99.90;;;;;;5018107;28;20032;-72
2023/12/01 08:26:37;;;;;;;3.67;2.78;;;2.00;99.90;;;;;;5037394;28;20030;-72
2023/12/01 08:29:04;;;;;;;6.63;3.83;;;2.00;99.90;;;;;;5028424;28;20029;-72
2023/12/01 08:31:30;;;;;;;9.60;3.33;;;2.00;99.90;;;;;;5005404;28;20041;-72
2023/12/01 08:33:57;;;;;;;8.77;3.42;;;2.10;99.90;;;;;;5025788;28;20057;-72
2023/12/01 08:36:23;;;;;;;5.28;4.13;;;2.00;99.90;;;;;;5020250;28;20029;-72
2023/12/01 08:38:48;;;;;;;3.03;2.67;;;2.00;99.90;;;;;;5029870;28;20031;-72
2023/12/01 08:41:14;;;;;;;12.85;4.25;;;2.00;99.90;;;;;;5029933;28;20020;-72
2023/12/01 08:43:40;;;;;;;16.45;3.20;;;2.00;99.90;;;;;;5030395;28;20116;-72
2023/12/01 08:46:06;;;;;;;4.53;2.88;;;2.00;99.90;;;;;;5039592;28;20490;-72
2023/12/01 08:48:32;;;;;;;3.78;3.22;;;2.00;99.90;;;;;;5048103;28;20036;-72
2023/12/01 08:50:57;;;;;;;4.18;3.05;;;2.00;99.90;;;;;;5034944;28;20493;-72
2023/12/01 08:53:24;;;;;;;13.68;5.82;;;2.00;99.90;;;;;;5021627;28;20045;-71
2023/12/01 08:55:50;;;;;;;5.43;3.50;;;2.10;99.90;;;;;;5040219;28;20032;-72
2023/12/01 08:58:17;;;;;;;5.55;4.05;;;2.10;99.90;;;;;;5019213;28;20026;-72
2023/12/01 09:00:43;;;;;;;4.10;2.33;;;2.10;99.90;;;;;;5025131;28;20033;-73
2023/12/01 09:03:09;;;;;;;10.00;3.90;;;2.10;99.90;;;;;;5026904;28;20086;-72
2023/12/01 09:05:35;;;;;;;4.72;3.75;;;2.10;99.90;;;;;;5042781;28;20030;-72
2023/12/01 09:08:05;;;;;;;4.90;3.00;;;2.20;99.90;;;;;;5035099;28;20056;-72
2023/12/01 09:10:32;;;;;;;9.65;3.72;;;2.10;99.90;;;;;;5038172;28;20080;-71
2023/12/01 09:12:58;;;;;;;5.03;3.75;;;2.10;99.90;;;;;;5026553;28;20040;-72
2023/12/01 09:15:25;;;;;;;4.78;4.18;;;2.10;99.90;;;;;;5024403;28;20065;-71
2023/12/01 09:17:54;;;;;;;3.97;2.30;;;2.20;99.90;;;;;;5030778;28;20053;-71
2023/12/01 09:20:20;;;;;;;3.42;2.85;;;2.20;99.90;;;;;;5043843;28;20043;-71
2023/12/01 09:22:47;;;;;;;3.00;2.65;;;2.20;99.90;;;;;;5043025;28;20493;-71
2023/12/01 09:25:13;;;;;;;10.13;4.85;;;2.30;99.90;;;;;;5034364;28;20033;-71
2023/12/01 09:27:41;;;;;;;8.30;4.55;;;2.40;99.90;;;;;;5022530;28;20140;-71
2023/12/01 09:30:13;;;;;;;4.38;3.50;;;2.30;99.90;;;;;;5022567;28;20112;-71
2023/12/01 09:32:40;;;;;;;5.80;4.30;;;2.40;99.90;;;;;;5037311;28;20043;-73
2023/12/01 09:35:06;;;;;;;13.35;6.13;;;2.40;99.90;;;;;;5038760;28;20063;-72
2023/12/01 09:37:32;;;;;;;5.22;4.07;;;2.40;99.90;;;;;;5031605;28;20117;-73
2023/12/01 09:39:58;;;;;;;4.35;2.13;;;2.40;99.90;;;;;;5022651;28;20034;-71
2023/12/01 09:42:25;;;;;;;3.45;3.13;;;2.40;99.90;;;;;;5045981;28;20066;-72
2023/12/01 09:44:53;;;;;;;4.07;3.53;;;2.40;99.90;;;;;;5018945;28;20057;-72
2023/12/01 09:47:24;;;;;;;9.25;2.72;;;2.50;99.90;;;;;;5045477;28;20025;-72
2023/12/01 09:49:51;;;;;;;2.67;2.22;;;2.50;99.90;;;;;;5031959;28;20052;-72
2023/12/01 09:52:17;;;;;;;3.47;3.03;;;2.50;99.90;;;;;;5029317;28;20025;-72
2023/12/01 09:54:43;;;;;;;9.52;3.97;;;2.60;99.90;;;;;;5031869;28;20057;-71
2023/12/01 09:57:10;;;;;;;5.40;3.67;;;2.60;99.90;;;;;;5034957;28;20076;-71
2023/12/01 09:59:36;;;;;;;6.80;3.78;;;2.70;99.90;;;;;;5034707;28;20029;-72
2023/12/01 10:02:03;;;;;;;7.03;4.10;;;2.70;99.90;;;;;;5036779;28;20026;-72
2023/12/01 10:04:32;;;;;;;6.45;3.25;;;2.70;99.90;;;;;;5033192;28;20057;-73
2023/12/01 10:07:00;;;;;;;9.93;5.35;;;2.80;99.90;;;;;;5034354;28;20026;-72
2023/12/01 10:09:28;;;;;;;4.70;3.65;;;2.90;99.90;;;;;;5035813;28;20038;-72
2023/12/01 10:12:12;;;;;;;5.45;4.22;;;2.90;99.90;;;;;;5022358;28;20091;-72
2023/12/01 10:14:42;;;;;;;5.20;4.22;;;3.00;99.90;;;;;;5036074;28;20048;-72
2023/12/01 10:17:12;;;;;;;4.22;3.33;;;2.90;99.90;;;;;;5046460;28;20067;-72
2023/12/01 10:19:48;;;;;;;2.22;2.03;;;3.00;99.90;;;;;;5044164;28;20675;-72
2023/12/01 10:22:16;;;;;;;5.50;4.97;;;3.00;99.90;;;;;;5049482;28;20091;-72
2023/12/01 10:25:05;;;;;;;10.40;6.03;;;3.20;99.90;;;;;;5039292;28;20129;-73
2023/12/01 10:27:31;;;;;;;8.60;4.93;;;3.20;99.90;;;;;;5024578;28;20486;-72
2023/12/01 10:30:14;;;;;;;10.88;5.57;;;3.20;99.90;;;;;;5043568;28;20096;-72
2023/12/01 10:32:43;;;;;;;4.05;3.20;;;3.20;99.90;;;;;;5037042;28;20025;-74
2023/12/01 10:35:09;;;;;;;4.90;3.28;;;3.10;99.90;;;;;;5023554;28;20389;-72
2023/12/01 10:37:37;;;;;;;4.80;3.13;;;3.20;99.90;;;;;;5042812;28;20032;-72
2023/12/01 10:40:08;;;;;;;5.00;3.22;;;3.30;99.90;;;;;;5020942;28;20030;-72
2023/12/01 10:42:34;;;;;;;8.80;3.88;;;3.30;99.90;;;;;;5034267;28;20060;-71
2023/12/01 10:45:02;;;;;;;7.72;3.55;;;3.20;99.90;;;;;;5020459;28;20035;-71
2023/12/01 10:47:29;;;;;;;5.47;3.70;;;3.20;99.90;;;;;;5036638;28;20032;-72
2023/12/01 10:49:58;;;;;;;4.22;3.78;;;3.20;99.90;;;;;;5039471;28;20029;-72
2023/12/01 10:52:25;;;;;;;13.07;5.18;;;3.10;99.90;;;;;;5028333;28;20104;-73
2023/12/01 10:54:52;;;;;;;6.90;5.28;;;3.10;99.90;;;;;;5051316;28;20556;-72
2023/12/01 10:57:40;;;;;;;5.32;4.38;;;3.10;99.90;;;;;;5035249;28;20231;-71
2023/12/01 11:00:09;;;;;;;18.95;4.47;;;3.20;99.90;;;;;;5038446;28;20475;-53
2023/12/01 11:02:38;;;;;;;3.42;2.83;;;3.20;99.90;;;;;;5036235;28;20030;-53
2023/12/01 11:05:07;;;;;;;10.60;3.42;;;3.30;99.90;;;;;;5044749;28;20030;-54
2023/12/01 11:07:48;;;;;;;9.27;4.10;;;4.00;99.90;;;;;;5032488;28;20033;-71
2023/12/01 11:10:31;;;;;;;10.00;5.47;;;4.00;99.90;;;;;;5036154;28;20091;-73
2023/12/01 11:13:09;;;;;;;7.22;4.97;;;3.90;99.90;;;;;;5012169;28;20311;-74
2023/12/01 11:15:37;;;;;;;4.07;3.35;;;3.80;99.90;;;;;;5043587;28;20037;-73
2023/12/01 11:18:08;;;;;;;4.53;2.53;;;3.80;99.90;;;;;;5035639;28;20024;-73
2023/12/01 11:20:36;;;;;;;5.72;3.75;;;3.80;99.90;;;;;;5022430;28;20039;-73
2023/12/01 11:23:11;;;;;;;6.82;3.75;;;3.40;99.90;;;;;;5032109;28;20448;-74
2023/12/01 11:25:50;;;;;;;3.05;2.80;;;3.40;99.90;;;;;;5036103;28;20402;-76
2023/12/01 11:31:16;;;;;;;3.70;2.97;;;3.30;99.90;;;;;;5032030;28;20512;-74
2023/12/01 11:33:53;;;;;;;7.57;3.60;;;3.20;99.90;;;;;;5034692;28;20536;-74
2023/12/01 11:36:32;;;;;;;11.35;4.00;;;3.20;99.90;;;;;;5040403;28;20041;-74
2023/12/01 11:39:14;;;;;;;1.85;1.70;;;3.10;99.90;;;;;;5039725;28;20029;-74
2023/12/01 11:41:43;;;;;;;3.85;2.47;;;3.00;99.90;;;;;;5033098;28;20765;-74
2023/12/01 11:44:34;;;;;;;9.30;4.45;;;3.00;99.90;;;;;;5036028;28;20029;-74
2023/12/01 11:47:04;;;;;;;4.68;3.72;;;2.90;99.90;;;;;;5025865;28;20440;-74
2023/12/01 11:49:38;;;;;;;5.47;3.17;;;2.90;99.90;;;;;;5039347;28;20037;-74
2023/12/01 11:52:07;;;;;;;8.88;5.28;;;2.90;99.90;;;;;;5019446;28;20068;-74
2023/12/01 11:54:36;;;;;;;3.42;3.13;;;2.90;99.90;;;;;;5051249;28;20124;-74
2023/12/01 11:57:12;;;;;;;7.68;4.05;;;3.00;99.90;;;;;;5030679;28;20385;-74
2023/12/01 11:59:38;;;;;;;7.30;2.95;;;3.00;99.90;;;;;;5041940;28;20520;-75
2023/12/01 12:02:05;;;;;;;10.45;3.47;;;3.00;99.90;;;;;;5039622;28;20432;-74
2023/12/01 12:04:32;;;;;;;15.93;4.38;;;3.00;99.90;;;;;;5033063;28;20397;-75
2023/12/01 12:07:02;;;;;;;13.30;4.30;;;3.00;99.90;;;;;;5031031;28;20028;-74
2023/12/01 12:09:32;;;;;;;6.80;4.28;;;3.00;99.90;;;;;;5028344;28;20021;-74
2023/12/01 12:12:00;;;;;;;4.75;2.38;;;3.00;99.90;;;;;;5022173;28;20124;-74
2023/12/01 12:14:30;;;;;;;5.75;3.83;;;3.00;99.90;;;;;;5033427;28;20040;-76
2023/12/01 12:16:56;;;;;;;7.22;3.10;;;2.90;99.90;;;;;;5040627;28;20034;-75
2023/12/01 12:19:22;;;;;;;6.07;3.78;;;2.90;99.90;;;;;;5038080;28;20503;-74
2023/12/01 12:21:49;;;;;;;8.57;4.32;;;2.90;99.90;;;;;;5050117;28;20037;-73
2023/12/01 12:24:15;;;;;;;4.45;3.20;;;2.90;99.90;;;;;;5050024;28;20371;-76
2023/12/01 12:26:42;;;;;;;9.38;5.68;;;2.90;99.90;;;;;;5038710;28;20025;-73
2023/12/01 12:29:08;;;;;;;5.53;4.38;;;3.00;99.90;;;;;;5039949;28;20028;-74
2023/12/01 12:31:36;;;;;;;7.15;4.97;;;2.90;99.90;;;;;;5037934;28;20037;-74
2023/12/01 12:34:09;;;;;;;26.52;5.47;;;2.90;99.90;;;;;;5035208;28;20060;-74
2023/12/01 12:36:40;;;;;;;4.00;3.65;;;2.90;99.90;;;;;;5031209;28;20493;-75
2023/12/01 12:39:13;;;;;;;9.52;4.47;;;3.00;99.90;;;;;;5036755;28;20469;-74
2023/12/01 12:41:40;;;;;;;9.68;5.88;;;3.00;99.90;;;;;;5031459;28;20069;-74
2023/12/01 12:44:09;;;;;;;13.63;5.40;;;3.00;99.90;;;;;;5039084;28;20022;-72
2023/12/01 12:46:36;;;;;;;11.07;5.78;;;3.10;99.90;;;;;;5029999;28;20443;-73
2023/12/01 12:49:11;;;;;;;3.15;2.55;;;3.00;99.90;;;;;;5018550;28;20108;-75
2023/12/01 12:51:38;;;;;;;8.43;4.95;;;3.10;99.90;;;;;;5054633;28;20116;-73
2023/12/01 12:54:07;;;;;;;7.55;5.82;;;3.10;99.90;;;;;;5037245;28;20083;-73
2023/12/01 12:56:34;;;;;;;7.45;3.40;;;3.00;99.90;;;;;;5031503;28;20053;-74
2023/12/01 12:59:00;;;;;;;2.95;2.38;;;3.00;99.90;;;;;;5050312;28;20108;-74
2023/12/01 13:01:27;;;;;;;7.68;4.10;;;2.90;99.90;;;;;;5031059;28;20104;-74
2023/12/01 13:03:54;;;;;;;8.15;4.63;;;2.90;99.90;;;;;;5017284;28;20708;-73